Read Island, Canada
Current Conditions -  °F | °C
As of 6:00 AM on Tuesday 27 Jan 2015 (Local Time) from CYBL Reporting Station
Haze Haze  
Wind Chill: 42°   Ceiling: 200
Heat Index: 45°   Visibility: 1.2mi
Dew Point: 45°   Wind: 5mph
Humidity: 100%   Direction: 300°WNW
Pressure: 29.94"   Gusts: NA
Location:  50.18°N, 125.09°W
Report Text: CYBL 271400Z 30004KT 1 1/4SM BR OVC002 07/07 A2994 RMK SF8 SLP142
Loading
Personal Weather Stations






























Interactive Weather Map New forecast layout! Learn more

10-Day Weather Forecast

Advertisements
Track Severe Weather on mobile